createdAt,value
2018-01-17T00:02:01.894Z,98303.75
2018-01-17T00:04:29.387Z,98294.45
2018-01-17T00:06:56.892Z,98291.52
2018-01-17T00:09:24.405Z,98282.70
2018-01-17T00:11:51.904Z,98283.02
2018-01-17T00:14:19.430Z,98284.48
2018-01-17T00:16:46.943Z,98282.70
2018-01-17T00:19:14.462Z,98272.19
2018-01-17T00:21:41.950Z,98281.11
2018-01-17T00:24:09.435Z,98272.31
2018-01-17T00:26:37.579Z,98270.64
2018-01-17T00:29:05.107Z,98263.05
2018-01-17T00:31:32.614Z,98268.72
2018-01-17T00:34:00.116Z,98262.31
2018-01-17T00:36:27.621Z,98263.16
2018-01-17T00:38:55.122Z,98252.34
2018-01-17T00:41:22.631Z,98248.72
2018-01-17T00:43:50.123Z,98248.19
2018-01-17T00:46:17.650Z,98251.56
2018-01-17T00:48:45.151Z,98242.23
2018-01-17T00:51:12.630Z,98241.58
2018-01-17T00:53:40.149Z,98239.13
2018-01-17T00:56:10.583Z,98239.13
2018-01-17T00:58:38.056Z,98236.22
2018-01-17T01:01:05.598Z,98225.84
2018-01-17T01:03:33.075Z,98226.35
2018-01-17T01:06:00.605Z,98223.65
2018-01-17T01:08:28.115Z,98233.25
2018-01-17T01:10:55.626Z,98232.41
2018-01-17T01:13:23.153Z,98229.31
2018-01-17T01:15:50.648Z,98235.19
2018-01-17T01:18:18.175Z,98228.88
2018-01-17T01:20:45.660Z,98228.13
2018-01-17T01:23:13.166Z,98229.41
2018-01-17T01:25:40.698Z,98231.54
2018-01-17T01:28:08.745Z,98227.78
2018-01-17T01:30:36.252Z,98224.41
2018-01-17T01:33:03.774Z,98225.67
2018-01-17T01:35:31.290Z,98223.14
2018-01-17T01:37:58.783Z,98212.59
2018-01-17T01:40:26.276Z,98217.28
2018-01-17T01:42:53.790Z,98212.97
2018-01-17T01:45:21.538Z,98210.09
2018-01-17T01:47:49.035Z,98211.34
2018-01-17T01:50:16.521Z,98212.50
2018-01-17T01:52:44.039Z,98204.41
2018-01-17T01:55:11.536Z,98204.77
2018-01-17T01:57:39.043Z,98199.24
2018-01-17T02:00:06.838Z,98196.16
2018-01-17T02:02:34.320Z,98197.89
2018-01-17T02:05:01.808Z,98192.45
2018-01-17T02:07:29.315Z,98192.47
2018-01-17T02:09:56.805Z,98189.66
2018-01-17T02:12:24.311Z,98191.38
2018-01-17T02:14:51.811Z,98187.55
2018-01-17T02:17:19.315Z,98182.12
2018-01-17T02:19:46.819Z,98177.12
2018-01-17T02:22:14.312Z,98177.45
2018-01-17T02:24:41.826Z,98180.02
2018-01-17T02:27:09.343Z,98173.81
2018-01-17T02:29:36.850Z,98176.31
2018-01-17T02:32:04.347Z,98176.78
2018-01-17T02:34:31.858Z,98172.44
2018-01-17T02:36:59.364Z,98175.17
2018-01-17T02:42:31.015Z,98173.02
2018-01-17T02:44:59.115Z,98175.88
2018-01-17T02:47:26.614Z,98176.77
2018-01-17T02:49:54.138Z,98168.77
2018-01-17T02:52:21.628Z,98167.94
2018-01-17T02:54:49.148Z,98172.04
2018-01-17T02:57:17.218Z,98163.56
2018-01-17T02:59:45.496Z,98163.56
2018-01-17T03:02:12.980Z,98159.88
2018-01-17T03:04:40.482Z,98158.65
2018-01-17T03:07:07.983Z,98163.67
2018-01-17T03:09:35.480Z,98162.66
2018-01-17T03:12:03.040Z,98163.93
2018-01-17T03:14:30.547Z,98164.34
2018-01-17T03:16:58.048Z,98162.59
2018-01-17T03:19:25.552Z,98167.56
2018-01-17T03:21:53.036Z,98165.81
2018-01-17T03:24:20.568Z,98163.02
2018-01-17T03:26:48.066Z,98159.52
2018-01-17T03:29:15.610Z,98157.33
2018-01-17T03:31:43.103Z,98158.59
2018-01-17T03:34:10.620Z,98151.44
2018-01-17T03:36:38.121Z,98138.45
2018-01-17T03:39:05.628Z,98138.45
2018-01-17T03:41:33.416Z,98129.17
2018-01-17T03:44:00.998Z,98129.95
2018-01-17T03:46:28.518Z,98130.83
2018-01-17T03:48:56.003Z,98124.56
2018-01-17T03:51:23.506Z,98118.61
2018-01-17T03:53:51.018Z,98117.68
2018-01-17T03:56:18.552Z,98122.32
2018-01-17T03:58:46.036Z,98116.94
2018-01-17T04:01:13.532Z,98112.83
2018-01-17T04:03:41.048Z,98109.78
2018-01-17T04:06:08.573Z,98111.09
2018-01-17T04:08:36.087Z,98113.39
2018-01-17T04:11:03.638Z,98119.32
2018-01-17T04:13:31.164Z,98130.08
2018-01-17T04:15:58.686Z,98128.88
2018-01-17T04:18:27.093Z,98131.73
2018-01-17T04:20:54.598Z,98125.58
2018-01-17T04:23:22.103Z,98129.23
2018-01-17T04:25:49.602Z,98133.87
2018-01-17T04:28:17.104Z,98143.03
2018-01-17T04:30:44.618Z,98158.88
2018-01-17T04:33:12.124Z,98164.20
2018-01-17T04:35:39.658Z,98188.01
2018-01-17T04:38:07.152Z,98199.98
2018-01-17T04:40:34.652Z,98205.98
2018-01-17T04:43:02.156Z,98209.48
2018-01-17T04:45:29.638Z,98205.12
2018-01-17T04:47:57.139Z,98205.20
2018-01-17T04:50:24.993Z,98204.30
2018-01-17T04:52:52.519Z,98198.73
2018-01-17T04:55:20.026Z,98188.85
2018-01-17T04:57:47.504Z,98188.42
2018-01-17T05:00:14.996Z,98183.43
2018-01-17T05:02:42.480Z,98188.42
2018-01-17T05:05:09.989Z,98192.12
2018-01-17T05:07:37.497Z,98199.77
2018-01-17T05:10:04.972Z,98201.92
2018-01-17T05:12:32.461Z,98204.71
2018-01-17T05:14:59.955Z,98199.53
2018-01-17T05:17:27.440Z,98201.27
2018-01-17T05:19:54.916Z,98199.37
2018-01-17T05:22:22.404Z,98205.92
2018-01-17T05:24:49.879Z,98205.16
2018-01-17T05:27:17.379Z,98209.80
2018-01-17T05:29:44.881Z,98206.44
2018-01-17T05:32:12.382Z,98206.45
2018-01-17T05:34:39.881Z,98207.30
2018-01-17T05:37:07.399Z,98215.27
2018-01-17T05:39:34.902Z,98218.53
2018-01-17T05:42:02.994Z,98217.72
2018-01-17T05:44:31.193Z,98213.95
2018-01-17T05:46:58.705Z,98218.97
2018-01-17T05:49:26.244Z,98217.63
2018-01-17T05:51:53.737Z,98217.59
2018-01-17T05:54:21.283Z,98217.27
2018-01-17T05:56:48.875Z,98213.04
2018-01-17T05:59:16.410Z,98217.22
2018-01-17T06:01:44.045Z,98215.21
2018-01-17T06:04:11.602Z,98217.27
2018-01-17T06:06:39.167Z,98221.04
2018-01-17T06:09:06.740Z,98223.22
2018-01-17T06:11:34.248Z,98229.88
2018-01-17T06:14:01.761Z,98228.23
2018-01-17T06:16:29.315Z,98240.84
2018-01-17T06:18:56.824Z,98243.71
2018-01-17T06:21:24.466Z,98251.70
2018-01-17T06:23:52.002Z,98251.72
2018-01-17T06:26:19.530Z,98260.16
2018-01-17T06:28:47.098Z,98268.19
2018-01-17T06:31:14.618Z,98273.63
2018-01-17T06:33:42.148Z,98270.70
2018-01-17T06:36:09.688Z,98276.15
2018-01-17T06:38:37.256Z,98277.84
2018-01-17T06:41:04.912Z,98282.36
2018-01-17T06:43:32.481Z,98277.77
2018-01-17T06:46:00.822Z,98283.93
2018-01-17T06:48:28.309Z,98294.50
2018-01-17T06:50:55.830Z,98297.41
2018-01-17T06:53:23.351Z,98298.33
2018-01-17T06:55:50.896Z,98306.71
2018-01-17T06:58:18.454Z,98309.20
2018-01-17T07:00:45.962Z,98307.99
2018-01-17T07:03:13.491Z,98318.83
2018-01-17T07:05:41.046Z,98318.45
2018-01-17T07:08:08.596Z,98328.95
2018-01-17T07:10:36.167Z,98333.48
2018-01-17T07:13:03.700Z,98330.91
2018-01-17T07:15:31.220Z,98333.01
2018-01-17T07:17:58.797Z,98338.41
2018-01-17T07:20:26.332Z,98345.93
2018-01-17T07:22:53.902Z,98342.14
2018-01-17T07:25:21.415Z,98345.17
2018-01-17T07:27:48.924Z,98350.59
2018-01-17T07:30:16.482Z,98363.20
2018-01-17T07:32:43.994Z,98363.63
2018-01-17T07:35:11.643Z,98361.05
2018-01-17T07:37:39.298Z,98360.58
2018-01-17T07:40:06.830Z,98369.33
2018-01-17T07:42:34.333Z,98375.18
2018-01-17T07:45:01.833Z,98381.52
2018-01-17T07:47:29.477Z,98383.14
2018-01-17T07:49:57.098Z,98383.55
2018-01-17T07:52:24.769Z,98390.25
2018-01-17T07:54:52.354Z,98390.69
2018-01-17T07:57:19.954Z,98395.25
2018-01-17T07:59:47.469Z,98396.48
2018-01-17T08:02:14.956Z,98403.30
2018-01-17T08:04:42.494Z,98417.95
2018-01-17T08:07:10.004Z,98421.84
2018-01-17T08:09:37.606Z,98424.27
2018-01-17T08:12:05.143Z,98434.03
2018-01-17T08:14:32.671Z,98437.38
2018-01-17T08:17:00.249Z,98445.45
2018-01-17T08:19:27.830Z,98451.34
2018-01-17T08:21:55.371Z,98450.08
2018-01-17T08:24:22.952Z,98453.86
2018-01-17T08:26:50.470Z,98456.38
2018-01-17T08:29:18.028Z,98464.70
2018-01-17T08:31:45.540Z,98464.73
2018-01-17T08:34:13.407Z,98473.97
2018-01-17T08:36:40.936Z,98478.51
2018-01-17T08:39:08.449Z,98477.59
2018-01-17T08:41:35.971Z,98483.97
2018-01-17T08:44:03.472Z,98488.12
2018-01-17T08:46:31.022Z,98491.06
2018-01-17T08:48:58.600Z,98488.07
2018-01-17T08:51:26.121Z,98494.36
2018-01-17T08:53:53.612Z,98505.73
2018-01-17T08:56:21.130Z,98505.73
2018-01-17T08:58:48.696Z,98506.52
2018-01-17T09:01:16.260Z,98510.22
2018-01-17T09:03:43.758Z,98519.91
2018-01-17T09:06:11.558Z,98526.23
2018-01-17T09:08:39.153Z,98527.41
2018-01-17T09:11:06.711Z,98542.12
2018-01-17T09:13:34.286Z,98545.83
2018-01-17T09:16:01.824Z,98552.20
2018-01-17T09:18:29.375Z,98553.47
2018-01-17T09:20:56.897Z,98559.28
2018-01-17T09:23:24.400Z,98562.19
2018-01-17T09:25:52.284Z,98565.57
2018-01-17T09:28:19.772Z,98563.47
2018-01-17T09:30:47.394Z,98570.19
2018-01-17T09:33:14.896Z,98571.45
2018-01-17T09:35:42.468Z,98569.34
2018-01-17T09:38:09.968Z,98585.72
2018-01-17T09:40:37.473Z,98589.84
2018-01-17T09:43:05.053Z,98594.52
2018-01-17T09:45:32.598Z,98583.52
2018-01-17T09:48:00.104Z,98609.17
2018-01-17T09:50:27.596Z,98597.00
2018-01-17T09:52:55.131Z,98607.89
2018-01-17T09:55:22.677Z,98611.30
2018-01-17T09:57:50.188Z,98621.42
2018-01-17T10:00:17.709Z,98620.94
2018-01-17T10:02:45.261Z,98620.55
2018-01-17T10:05:12.869Z,98633.52
2018-01-17T10:07:40.475Z,98636.43
2018-01-17T10:10:08.051Z,98631.42
2018-01-17T10:12:35.646Z,98636.83
2018-01-17T10:15:03.241Z,98633.91
2018-01-17T10:17:30.824Z,98637.25
2018-01-17T10:19:58.415Z,98643.48
2018-01-17T10:22:26.034Z,98644.78
2018-01-17T10:24:53.597Z,98646.02
2018-01-17T10:27:21.104Z,98650.78
2018-01-17T10:29:48.631Z,98662.15
2018-01-17T10:32:16.200Z,98658.09
2018-01-17T10:34:43.724Z,98666.53
2018-01-17T10:37:11.263Z,98680.40
2018-01-17T10:39:38.793Z,98679.15
2018-01-17T10:42:06.361Z,98686.23
2018-01-17T10:44:35.105Z,98687.03
2018-01-17T10:47:02.596Z,98690.06
2018-01-17T10:49:30.125Z,98687.16
2018-01-17T10:51:57.608Z,98703.94
2018-01-17T10:54:25.130Z,98697.14
2018-01-17T10:56:52.632Z,98697.63
2018-01-17T10:59:20.191Z,98710.65
2018-01-17T11:01:47.726Z,98713.13
2018-01-17T11:04:15.365Z,98708.06
2018-01-17T11:06:42.904Z,98716.00
2018-01-17T11:09:10.410Z,98720.57
2018-01-17T11:11:37.942Z,98718.04
2018-01-17T11:14:05.519Z,98720.04
2018-01-17T11:16:33.030Z,98729.20
2018-01-17T11:19:00.651Z,98729.19
2018-01-17T11:21:28.157Z,98731.28
2018-01-17T11:23:56.387Z,98719.91
2018-01-17T11:26:23.937Z,98733.23
2018-01-17T11:28:51.518Z,98741.69
2018-01-17T11:31:18.997Z,98731.68
2018-01-17T11:33:46.508Z,98730.81
2018-01-17T11:36:14.060Z,98735.02
2018-01-17T11:38:41.604Z,98740.48
2018-01-17T11:41:09.101Z,98727.44
2018-01-17T11:43:36.612Z,98735.83
2018-01-17T11:46:04.178Z,98743.48
2018-01-17T11:48:31.690Z,98739.23
2018-01-17T11:50:59.184Z,98737.53
2018-01-17T11:53:26.795Z,98739.64
2018-01-17T11:55:54.352Z,98743.47
2018-01-17T11:58:21.860Z,98753.48
2018-01-17T12:00:49.408Z,98749.23
2018-01-17T12:03:16.946Z,98754.73
2018-01-17T12:05:44.446Z,98768.20
2018-01-17T12:08:12.071Z,98774.48
2018-01-17T12:10:39.570Z,98767.70
2018-01-17T12:13:07.131Z,98774.87
2018-01-17T12:15:34.626Z,98783.64
2018-01-17T12:18:02.115Z,98780.71
2018-01-17T12:20:29.588Z,98784.84
2018-01-17T12:22:57.128Z,98783.50
2018-01-17T12:25:24.727Z,98792.73
2018-01-17T12:27:52.264Z,98790.58
2018-01-17T12:30:19.811Z,98788.80
2018-01-17T12:32:47.353Z,98788.34
2018-01-17T12:35:14.989Z,98786.29
2018-01-17T12:40:09.361Z,98791.22
2018-01-17T12:42:36.970Z,98793.73
2018-01-17T12:45:04.548Z,98796.64
2018-01-17T12:47:32.154Z,98797.03
2018-01-17T12:49:59.694Z,98805.05
2018-01-17T12:52:27.293Z,98804.99
2018-01-17T12:54:54.901Z,98804.59
2018-01-17T12:57:22.584Z,98802.86
2018-01-17T12:59:50.285Z,98804.48
2018-01-17T13:02:17.863Z,98812.45
2018-01-17T13:04:45.418Z,98813.22
2018-01-17T13:07:12.980Z,98807.30
2018-01-17T13:09:40.685Z,98805.12
2018-01-17T13:12:08.406Z,98808.08
2018-01-17T13:14:36.477Z,98810.98
2018-01-17T13:17:04.079Z,98810.94
2018-01-17T13:19:31.658Z,98807.63
2018-01-17T13:21:59.196Z,98815.65
2018-01-17T13:24:26.819Z,98813.03
2018-01-17T13:26:54.390Z,98822.33
2018-01-17T13:29:22.868Z,98826.59
2018-01-17T13:31:51.353Z,98836.26
2018-01-17T13:34:19.023Z,98838.88
2018-01-17T13:36:46.624Z,98829.58
2018-01-17T13:39:14.282Z,98833.84
2018-01-17T13:41:42.124Z,98849.02
2018-01-17T13:44:10.631Z,98852.05
2018-01-17T13:46:40.816Z,98848.21
2018-01-17T13:49:11.132Z,98856.25
2018-01-17T13:51:38.728Z,98847.03
2018-01-17T13:54:06.282Z,98860.91
2018-01-17T13:56:33.842Z,98853.44
2018-01-17T13:59:01.382Z,98857.67
2018-01-17T14:01:28.979Z,98863.55
2018-01-17T14:03:56.513Z,98859.25
2018-01-17T14:06:24.046Z,98862.72
2018-01-17T14:08:51.606Z,98860.22
2018-01-17T14:11:19.104Z,98861.45
2018-01-17T14:13:46.646Z,98865.20
2018-01-17T14:16:14.176Z,98868.16
2018-01-17T14:18:41.762Z,98870.26
2018-01-17T14:21:09.297Z,98872.83
2018-01-17T14:23:36.820Z,98870.72
2018-01-17T14:26:04.330Z,98874.48
2018-01-17T14:28:31.890Z,98878.69
2018-01-17T14:30:59.404Z,98881.63
2018-01-17T14:33:27.442Z,98875.70
2018-01-17T14:35:54.948Z,98884.09
2018-01-17T14:38:22.444Z,98886.23
2018-01-17T14:40:49.946Z,98882.42
2018-01-17T14:43:17.537Z,98889.95
2018-01-17T14:45:45.069Z,98889.58
2018-01-17T14:48:12.657Z,98888.75
2018-01-17T14:50:41.061Z,98898.42
2018-01-17T14:53:08.660Z,98898.00
2018-01-17T14:55:36.281Z,98898.53
2018-01-17T14:58:03.839Z,98904.40
2018-01-17T15:00:31.393Z,98904.86
2018-01-17T15:02:59.097Z,98915.47
2018-01-17T15:05:27.183Z,98902.56
2018-01-17T15:07:54.829Z,98908.01
2018-01-17T15:10:22.484Z,98926.55
2018-01-17T15:12:51.776Z,98921.09
2018-01-17T15:15:19.760Z,98920.69
2018-01-17T15:17:49.143Z,98927.08
2018-01-17T15:20:17.011Z,98929.16
2018-01-17T15:22:44.897Z,98930.05
2018-01-17T15:25:13.501Z,98941.39
2018-01-17T15:27:42.579Z,98942.20
2018-01-17T15:30:10.558Z,98943.05
2018-01-17T15:32:39.556Z,98956.09
2018-01-17T15:35:07.720Z,98957.72
2018-01-17T15:37:36.389Z,98956.86
2018-01-17T15:40:04.939Z,98964.92
2018-01-17T15:42:32.746Z,98954.47
2018-01-17T15:45:01.484Z,98953.99
2018-01-17T15:47:29.976Z,98959.07
2018-01-17T15:49:58.724Z,98975.04
2018-01-17T15:52:26.365Z,98968.77
2018-01-17T15:54:55.145Z,98969.16
2018-01-17T15:57:22.827Z,98972.52
2018-01-17T15:59:50.402Z,98975.02
2018-01-17T16:02:18.297Z,98980.94
2018-01-17T16:04:47.094Z,98981.83
2018-01-17T16:07:14.949Z,98983.08
2018-01-17T16:09:42.621Z,98995.73
2018-01-17T16:12:10.469Z,98994.43
2018-01-17T16:14:38.109Z,99004.94
2018-01-17T16:17:05.795Z,99011.25
2018-01-17T16:19:33.477Z,99001.53
2018-01-17T16:22:01.942Z,99008.27
2018-01-17T16:24:30.105Z,99014.53
2018-01-17T16:26:58.182Z,99012.41
2018-01-17T16:29:26.046Z,99023.70
2018-01-17T16:31:53.644Z,99024.59
2018-01-17T16:34:24.225Z,99035.51
2018-01-17T16:36:53.135Z,99034.27
2018-01-17T16:39:21.705Z,99041.41
2018-01-17T16:41:49.311Z,99046.05
2018-01-17T16:44:16.959Z,99056.97
2018-01-17T16:46:44.594Z,99059.52
2018-01-17T16:49:12.359Z,99073.36
2018-01-17T16:51:40.009Z,99070.03
2018-01-17T16:54:07.782Z,99071.23
2018-01-17T16:56:35.644Z,99074.62
2018-01-17T16:59:03.413Z,99076.72
2018-01-17T17:01:31.049Z,99075.48
2018-01-17T17:03:58.737Z,99075.50
2018-01-17T17:06:26.419Z,99080.96
2018-01-17T17:08:54.149Z,99083.07
2018-01-17T17:11:21.739Z,99083.94
2018-01-17T17:13:49.367Z,99094.04
2018-01-17T17:16:17.004Z,99093.55
2018-01-17T17:18:44.673Z,99094.83
2018-01-17T17:21:12.183Z,99102.89
2018-01-17T17:23:39.794Z,99104.63
2018-01-17T17:26:07.602Z,99113.06
2018-01-17T17:28:35.205Z,99113.48
2018-01-17T17:31:02.728Z,99110.58
2018-01-17T17:33:30.350Z,99122.74
2018-01-17T17:35:58.010Z,99120.20
2018-01-17T17:38:25.605Z,99123.14
2018-01-17T17:40:53.319Z,99138.31
2018-01-17T17:43:21.086Z,99134.05
2018-01-17T17:45:48.688Z,99129.84
2018-01-17T17:48:16.397Z,99134.05
2018-01-17T17:50:44.290Z,99150.42
2018-01-17T17:53:13.037Z,99153.34
2018-01-17T17:55:40.560Z,99152.08
2018-01-17T17:58:08.296Z,99164.68
2018-01-17T18:00:35.883Z,99168.03
2018-01-17T18:03:03.610Z,99163.84
2018-01-17T18:05:31.272Z,99165.08
2018-01-17T18:07:59.013Z,99169.30
2018-01-17T18:10:26.560Z,99171.36
2018-01-17T18:12:54.239Z,99182.73
2018-01-17T18:15:21.917Z,99194.94
2018-01-17T18:20:23.468Z,99198.75
2018-01-17T18:22:57.994Z,99207.59
2018-01-17T18:25:25.683Z,99202.61
2018-01-17T18:27:53.331Z,99206.39
2018-01-17T18:30:23.428Z,99218.16
2018-01-17T18:32:51.089Z,99222.84
2018-01-17T18:35:26.199Z,99232.91
2018-01-17T18:37:55.874Z,99234.60
2018-01-17T18:40:42.643Z,99242.16
2018-01-17T18:43:10.231Z,99241.38
2018-01-17T18:45:40.160Z,99251.49
2018-01-17T18:48:11.659Z,99254.47
2018-01-17T18:50:39.219Z,99258.27
2018-01-17T18:53:06.712Z,99254.91
2018-01-17T18:55:34.323Z,99264.16
2018-01-17T18:58:01.904Z,99265.86
2018-01-17T19:00:30.357Z,99270.03
2018-01-17T19:02:58.860Z,99271.30
2018-01-17T19:05:27.673Z,99269.61
2018-01-17T19:08:00.347Z,99277.19
2018-01-17T19:10:34.985Z,99277.59
2018-01-17T19:13:03.043Z,99291.47
2018-01-17T19:18:10.547Z,99294.41
2018-01-17T19:20:39.274Z,99293.96
2018-01-17T19:23:07.607Z,99301.97
2018-01-17T19:25:40.881Z,99305.75
2018-01-17T19:28:08.524Z,99311.64
2018-01-17T19:30:36.937Z,99308.72
2018-01-17T19:33:04.555Z,99333.55
2018-01-17T19:35:32.128Z,99336.11
2018-01-17T19:37:59.980Z,99339.06
2018-01-17T19:40:27.537Z,99327.30
2018-01-17T19:42:55.099Z,99326.86
2018-01-17T19:45:22.833Z,99332.75
2018-01-17T19:47:51.588Z,99334.02
2018-01-17T19:50:20.703Z,99330.66
2018-01-17T19:52:48.251Z,99333.17
2018-01-17T19:55:15.785Z,99338.64
2018-01-17T19:57:43.357Z,99339.06
2018-01-17T20:00:10.903Z,99345.79
2018-01-17T20:02:38.474Z,99341.98
2018-01-17T20:05:06.082Z,99352.51
2018-01-17T20:07:33.646Z,99363.02
2018-01-17T20:10:01.208Z,99358.78
2018-01-17T20:12:28.728Z,99367.63
2018-01-17T20:14:56.251Z,99366.34
2018-01-17T20:17:23.744Z,99378.55
2018-01-17T20:19:51.365Z,99373.50
2018-01-17T20:22:18.859Z,99383.59
2018-01-17T20:24:46.400Z,99383.58
2018-01-17T20:27:14.019Z,99391.56
2018-01-17T20:29:41.585Z,99375.98
2018-01-17T20:32:09.150Z,99382.30
2018-01-17T20:34:36.676Z,99391.97
2018-01-17T20:37:04.209Z,99394.91
2018-01-17T20:39:37.232Z,99400.81
2018-01-17T20:42:04.741Z,99399.97
2018-01-17T20:44:32.589Z,99398.72
2018-01-17T20:47:00.111Z,99399.55
2018-01-17T20:49:27.620Z,99397.04
2018-01-17T20:51:55.125Z,99401.23
2018-01-17T20:54:22.641Z,99399.56
2018-01-17T20:56:50.140Z,99402.92
2018-01-17T20:59:17.654Z,99409.26
2018-01-17T21:01:45.236Z,99412.61
2018-01-17T21:04:12.783Z,99407.16
2018-01-17T21:06:40.276Z,99411.79
2018-01-17T21:09:07.887Z,99416.84
2018-01-17T21:11:35.422Z,99413.05
2018-01-17T21:14:03.001Z,99416.84
2018-01-17T21:16:30.588Z,99410.95
2018-01-17T21:18:58.086Z,99408.03
2018-01-17T21:21:25.640Z,99410.56
2018-01-17T21:23:53.155Z,99423.17
2018-01-17T21:26:20.660Z,99418.97
2018-01-17T21:28:48.163Z,99420.64
2018-01-17T21:31:15.644Z,99425.27
2018-01-17T21:33:43.152Z,99426.95
2018-01-17T21:36:10.630Z,99428.22
2018-01-17T21:38:38.142Z,99434.53
2018-01-17T21:41:05.653Z,99433.27
2018-01-17T21:43:38.742Z,99451.35
2018-01-17T21:46:06.283Z,99448.00
2018-01-17T21:48:33.803Z,99457.67
2018-01-17T21:51:01.316Z,99463.13
2018-01-17T21:53:28.814Z,99458.92
2018-01-17T21:55:56.296Z,99473.66
2018-01-17T21:58:23.787Z,99473.66
2018-01-17T22:00:51.286Z,99474.09
2018-01-17T22:03:18.824Z,99474.50
2018-01-17T22:05:46.360Z,99479.99
2018-01-17T22:08:13.855Z,99481.23
2018-01-17T22:10:41.351Z,99472.41
2018-01-17T22:13:11.631Z,99479.98
2018-01-17T22:15:39.155Z,99482.48
2018-01-17T22:18:06.657Z,99480.78
2018-01-17T22:20:34.128Z,99485.00
2018-01-17T22:23:01.631Z,99484.57
2018-01-17T22:25:29.143Z,99484.14
2018-01-17T22:27:56.653Z,99481.22
2018-01-17T22:30:24.132Z,99479.11
2018-01-17T22:32:51.608Z,99475.72
2018-01-17T22:35:19.179Z,99482.47
2018-01-17T22:37:47.443Z,99478.26
2018-01-17T22:40:14.944Z,99483.72
2018-01-17T22:42:42.451Z,99487.96
2018-01-17T22:45:09.980Z,99488.77
2018-01-17T22:47:37.508Z,99492.14
2018-01-17T22:50:05.007Z,99492.56
2018-01-17T22:52:32.492Z,99488.38
2018-01-17T22:55:00.064Z,99485.85
2018-01-17T22:57:28.118Z,99483.77
2018-01-17T22:59:55.941Z,99494.70
2018-01-17T23:02:23.484Z,99481.65
2018-01-17T23:04:50.976Z,99484.20
2018-01-17T23:07:18.485Z,99485.44
2018-01-17T23:09:45.998Z,99492.17
2018-01-17T23:12:13.507Z,99498.07
2018-01-17T23:14:41.019Z,99503.11
2018-01-17T23:17:08.524Z,99502.69
2018-01-17T23:19:36.009Z,99505.66
2018-01-17T23:22:03.960Z,99503.98
2018-01-17T23:24:31.441Z,99495.97
2018-01-17T23:26:58.954Z,99490.92
2018-01-17T23:29:26.432Z,99495.14
2018-01-17T23:31:53.960Z,99490.48
2018-01-17T23:34:21.459Z,99506.50
2018-01-17T23:36:48.963Z,99503.55
2018-01-17T23:39:16.461Z,99501.85
2018-01-17T23:41:44.731Z,99499.34
2018-01-17T23:44:12.262Z,99485.03
2018-01-17T23:46:39.749Z,99487.55
2018-01-17T23:49:07.284Z,99477.86
2018-01-17T23:51:34.784Z,99484.19
2018-01-17T23:54:04.196Z,99481.66
2018-01-17T23:56:32.165Z,99493.46
2018-01-17T23:58:59.666Z,99493.01
